sensor_id;sensor_type;location;lat;lon;timestamp;temperature;humidity
27384;DHT22;14851;51.166;4.760;2023-03-11T00:00:20;1.30;99.90
27384;DHT22;14851;51.166;4.760;2023-03-11T00:02:51;1.30;99.90
27384;DHT22;14851;51.166;4.760;2023-03-11T00:05:23;1.30;99.90
27384;DHT22;14851;51.166;4.760;2023-03-11T00:07:53;1.30;99.90
27384;DHT22;14851;51.166;4.760;2023-03-11T00:10:22;1.40;99.90
27384;DHT22;14851;51.166;4.760;2023-03-11T00:12:48;1.40;99.90
27384;DHT22;14851;51.166;4.760;2023-03-11T00:15:14;1.30;99.90
27384;DHT22;14851;51.166;4.760;2023-03-11T00:17:40;1.30;99.90
27384;DHT22;14851;51.166;4.760;2023-03-11T00:20:10;1.40;99.90
27384;DHT22;14851;51.166;4.760;2023-03-11T00:22:39;1.40;99.90
27384;DHT22;14851;51.166;4.760;2023-03-11T00:25:05;1.40;99.90
27384;DHT22;14851;51.166;4.760;2023-03-11T00:27:31;1.40;99.90
27384;DHT22;14851;51.166;4.760;2023-03-11T00:30:00;1.40;99.90
27384;DHT22;14851;51.166;4.760;2023-03-11T00:32:25;1.40;99.90
27384;DHT22;14851;51.166;4.760;2023-03-11T00:34:51;1.40;99.90
27384;DHT22;14851;51.166;4.760;2023-03-11T00:37:17;1.40;99.90
27384;DHT22;14851;51.166;4.760;2023-03-11T00:39:43;1.40;99.90
27384;DHT22;14851;51.166;4.760;2023-03-11T00:42:10;1.40;99.90
27384;DHT22;14851;51.166;4.760;2023-03-11T00:44:37;1.30;99.90
27384;DHT22;14851;51.166;4.760;2023-03-11T00:47:02;1.30;99.90
27384;DHT22;14851;51.166;4.760;2023-03-11T00:49:28;1.30;99.90
27384;DHT22;14851;51.166;4.760;2023-03-11T00:52:00;1.30;99.90
27384;DHT22;14851;51.166;4.760;2023-03-11T00:54:26;1.30;99.90
27384;DHT22;14851;51.166;4.760;2023-03-11T00:56:53;1.30;99.90
27384;DHT22;14851;51.166;4.760;2023-03-11T00:59:19;1.30;99.90
27384;DHT22;14851;51.166;4.760;2023-03-11T01:01:45;1.20;99.90
27384;DHT22;14851;51.166;4.760;2023-03-11T01:04:11;1.20;99.90
27384;DHT22;14851;51.166;4.760;2023-03-11T01:06:37;1.20;99.90
27384;DHT22;14851;51.166;4.760;2023-03-11T01:09:03;1.20;99.90
27384;DHT22;14851;51.166;4.760;2023-03-11T01:11:30;1.30;99.90
27384;DHT22;14851;51.166;4.760;2023-03-11T01:13:57;1.40;99.90
27384;DHT22;14851;51.166;4.760;2023-03-11T01:16:23;1.40;99.90
27384;DHT22;14851;51.166;4.760;2023-03-11T01:18:49;1.40;99.90
27384;DHT22;14851;51.166;4.760;2023-03-11T01:21:14;1.40;99.90
27384;DHT22;14851;51.166;4.760;2023-03-11T01:23:41;1.40;99.90
27384;DHT22;14851;51.166;4.760;2023-03-11T01:26:10;1.40;99.90
27384;DHT22;14851;51.166;4.760;2023-03-11T01:28:35;1.40;99.90
27384;DHT22;14851;51.166;4.760;2023-03-11T01:31:01;1.40;99.90
27384;DHT22;14851;51.166;4.760;2023-03-11T01:33:29;1.50;99.90
27384;DHT22;14851;51.166;4.760;2023-03-11T01:35:54;1.50;99.90
27384;DHT22;14851;51.166;4.760;2023-03-11T01:38:20;1.50;99.90
27384;DHT22;14851;51.166;4.760;2023-03-11T01:40:49;1.50;99.90
27384;DHT22;14851;51.166;4.760;2023-03-11T01:48:35;1.50;99.90
27384;DHT22;14851;51.166;4.760;2023-03-11T01:51:04;1.50;99.90
27384;DHT22;14851;51.166;4.760;2023-03-11T01:53:32;1.50;99.90
27384;DHT22;14851;51.166;4.760;2023-03-11T01:55:59;1.50;99.90
27384;DHT22;14851;51.166;4.760;2023-03-11T01:58:31;1.50;99.90
27384;DHT22;14851;51.166;4.760;2023-03-11T02:00:59;1.50;99.90
27384;DHT22;14851;51.166;4.760;2023-03-11T02:03:33;1.50;99.90
27384;DHT22;14851;51.166;4.760;2023-03-11T02:06:01;1.50;99.90
27384;DHT22;14851;51.166;4.760;2023-03-11T02:08:28;1.50;99.90
27384;DHT22;14851;51.166;4.760;2023-03-11T02:10:56;1.50;99.90
27384;DHT22;14851;51.166;4.760;2023-03-11T02:13:22;1.50;99.90
27384;DHT22;14851;51.166;4.760;2023-03-11T02:15:48;1.50;99.90
27384;DHT22;14851;51.166;4.760;2023-03-11T02:18:18;1.50;99.90
27384;DHT22;14851;51.166;4.760;2023-03-11T02:24:12;1.60;99.90
27384;DHT22;14851;51.166;4.760;2023-03-11T02:27:00;1.60;99.90
27384;DHT22;14851;51.166;4.760;2023-03-11T02:29:29;1.60;99.90
27384;DHT22;14851;51.166;4.760;2023-03-11T02:31:57;1.60;99.90
27384;DHT22;14851;51.166;4.760;2023-03-11T02:34:28;1.50;99.90
27384;DHT22;14851;51.166;4.760;2023-03-11T02:36:54;1.60;99.90
27384;DHT22;14851;51.166;4.760;2023-03-11T02:39:40;1.50;99.90
27384;DHT22;14851;51.166;4.760;2023-03-11T02:42:13;1.50;99.90
27384;DHT22;14851;51.166;4.760;2023-03-11T02:44:43;1.50;99.90
27384;DHT22;14851;51.166;4.760;2023-03-11T02:47:10;1.50;99.90
27384;DHT22;14851;51.166;4.760;2023-03-11T02:49:39;1.50;99.90
27384;DHT22;14851;51.166;4.760;2023-03-11T02:52:05;1.50;99.90
27384;DHT22;14851;51.166;4.760;2023-03-11T02:54:31;1.50;99.90
27384;DHT22;14851;51.166;4.760;2023-03-11T02:57:00;1.50;99.90
27384;DHT22;14851;51.166;4.760;2023-03-11T02:59:27;1.50;99.90
27384;DHT22;14851;51.166;4.760;2023-03-11T03:01:54;1.50;99.90
27384;DHT22;14851;51.166;4.760;2023-03-11T03:04:21;1.50;99.90
27384;DHT22;14851;51.166;4.760;2023-03-11T03:06:47;1.50;99.90
27384;DHT22;14851;51.166;4.760;2023-03-11T03:09:16;1.50;99.90
27384;DHT22;14851;51.166;4.760;2023-03-11T03:11:43;1.50;99.90
27384;DHT22;14851;51.166;4.760;2023-03-11T03:14:09;1.50;99.90
27384;DHT22;14851;51.166;4.760;2023-03-11T03:16:35;1.50;99.90
27384;DHT22;14851;51.166;4.760;2023-03-11T03:19:01;1.50;99.90
27384;DHT22;14851;51.166;4.760;2023-03-11T03:21:27;1.50;99.90
27384;DHT22;14851;51.166;4.760;2023-03-11T03:23:55;1.50;99.90
27384;DHT22;14851;51.166;4.760;2023-03-11T03:26:23;1.50;99.90
27384;DHT22;14851;51.166;4.760;2023-03-11T03:28:50;1.50;99.90
27384;DHT22;14851;51.166;4.760;2023-03-11T03:31:16;1.50;99.90
27384;DHT22;14851;51.166;4.760;2023-03-11T03:33:43;1.50;99.90
27384;DHT22;14851;51.166;4.760;2023-03-11T03:36:11;1.50;99.90
27384;DHT22;14851;51.166;4.760;2023-03-11T03:38:44;1.50;99.90
27384;DHT22;14851;51.166;4.760;2023-03-11T03:41:14;1.50;99.90
27384;DHT22;14851;51.166;4.760;2023-03-11T03:43:41;1.40;99.90
27384;DHT22;14851;51.166;4.760;2023-03-11T03:46:07;1.40;99.90
27384;DHT22;14851;51.166;4.760;2023-03-11T03:48:39;1.40;99.90
27384;DHT22;14851;51.166;4.760;2023-03-11T03:51:09;1.50;99.90
27384;DHT22;14851;51.166;4.760;2023-03-11T03:53:38;1.40;99.90
27384;DHT22;14851;51.166;4.760;2023-03-11T03:56:07;1.40;99.90
27384;DHT22;14851;51.166;4.760;2023-03-11T03:58:35;1.30;99.90
27384;DHT22;14851;51.166;4.760;2023-03-11T04:01:03;1.30;99.90
27384;DHT22;14851;51.166;4.760;2023-03-11T04:03:30;1.30;99.90
27384;DHT22;14851;51.166;4.760;2023-03-11T04:08:42;1.20;99.90
27384;DHT22;14851;51.166;4.760;2023-03-11T04:11:09;1.20;99.90
27384;DHT22;14851;51.166;4.760;2023-03-11T04:13:39;1.10;99.90
27384;DHT22;14851;51.166;4.760;2023-03-11T04:16:06;1.10;99.90
27384;DHT22;14851;51.166;4.760;2023-03-11T04:18:33;1.00;99.90
27384;DHT22;14851;51.166;4.760;2023-03-11T04:20:59;1.00;99.90
27384;DHT22;14851;51.166;4.760;2023-03-11T04:23:29;0.90;99.90
27384;DHT22;14851;51.166;4.760;2023-03-11T04:25:55;0.90;99.90
27384;DHT22;14851;51.166;4.760;2023-03-11T04:28:22;0.90;99.90
27384;DHT22;14851;51.166;4.760;2023-03-11T04:30:47;0.90;99.90
27384;DHT22;14851;51.166;4.760;2023-03-11T04:33:14;0.80;99.90
27384;DHT22;14851;51.166;4.760;2023-03-11T04:35:40;0.80;99.90
27384;DHT22;14851;51.166;4.760;2023-03-11T04:38:06;0.70;99.90
27384;DHT22;14851;51.166;4.760;2023-03-11T04:40:32;0.70;99.90
27384;DHT22;14851;51.166;4.760;2023-03-11T04:42:58;0.60;99.90
27384;DHT22;14851;51.166;4.760;2023-03-11T04:45:24;0.60;99.90
27384;DHT22;14851;51.166;4.760;2023-03-11T04:47:54;0.50;99.90
27384;DHT22;14851;51.166;4.760;2023-03-11T04:50:22;0.50;99.90
27384;DHT22;14851;51.166;4.760;2023-03-11T04:52:48;0.50;99.90
27384;DHT22;14851;51.166;4.760;2023-03-11T04:55:14;0.50;99.90
27384;DHT22;14851;51.166;4.760;2023-03-11T04:57:42;0.50;99.90
27384;DHT22;14851;51.166;4.760;2023-03-11T05:00:11;0.40;99.90
27384;DHT22;14851;51.166;4.760;2023-03-11T05:02:41;0.40;99.90
27384;DHT22;14851;51.166;4.760;2023-03-11T05:05:08;0.40;99.90
27384;DHT22;14851;51.166;4.760;2023-03-11T05:07:39;0.40;99.90
27384;DHT22;14851;51.166;4.760;2023-03-11T05:10:07;0.40;99.90
27384;DHT22;14851;51.166;4.760;2023-03-11T05:12:35;0.40;99.90
27384;DHT22;14851;51.166;4.760;2023-03-11T05:15:01;0.30;99.90
27384;DHT22;14851;51.166;4.760;2023-03-11T05:17:27;0.30;99.90
27384;DHT22;14851;51.166;4.760;2023-03-11T05:19:53;0.30;99.90
27384;DHT22;14851;51.166;4.760;2023-03-11T05:22:24;0.30;99.90
27384;DHT22;14851;51.166;4.760;2023-03-11T05:24:52;0.30;99.90
27384;DHT22;14851;51.166;4.760;2023-03-11T05:27:21;0.20;99.90
27384;DHT22;14851;51.166;4.760;2023-03-11T05:29:52;0.20;99.90
27384;DHT22;14851;51.166;4.760;2023-03-11T05:32:19;0.20;99.90
27384;DHT22;14851;51.166;4.760;2023-03-11T05:34:47;0.20;99.90
27384;DHT22;14851;51.166;4.760;2023-03-11T05:37:14;0.20;99.90
27384;DHT22;14851;51.166;4.760;2023-03-11T05:39:47;0.20;99.90
27384;DHT22;14851;51.166;4.760;2023-03-11T05:42:15;0.20;99.90
27384;DHT22;14851;51.166;4.760;2023-03-11T05:44:41;0.20;99.90
27384;DHT22;14851;51.166;4.760;2023-03-11T05:47:10;0.20;99.90
27384;DHT22;14851;51.166;4.760;2023-03-11T05:49:37;0.20;99.90
27384;DHT22;14851;51.166;4.760;2023-03-11T05:52:03;0.10;99.90
27384;DHT22;14851;51.166;4.760;2023-03-11T05:54:31;0.10;99.90
27384;DHT22;14851;51.166;4.760;2023-03-11T05:56:56;0.10;99.90
27384;DHT22;14851;51.166;4.760;2023-03-11T05:59:23;0.10;99.90
27384;DHT22;14851;51.166;4.760;2023-03-11T06:01:55;0.10;99.90
27384;DHT22;14851;51.166;4.760;2023-03-11T06:04:23;0.10;99.90
27384;DHT22;14851;51.166;4.760;2023-03-11T06:06:49;0.00;99.90
27384;DHT22;14851;51.166;4.760;2023-03-11T06:09:19;0.00;99.90
27384;DHT22;14851;51.166;4.760;2023-03-11T06:11:45;0.00;99.90
27384;DHT22;14851;51.166;4.760;2023-03-11T06:14:16;0.00;99.90
27384;DHT22;14851;51.166;4.760;2023-03-11T06:16:44;0.00;99.90
27384;DHT22;14851;51.166;4.760;2023-03-11T06:19:11;0.00;99.90
27384;DHT22;14851;51.166;4.760;2023-03-11T06:21:41;0.00;99.90
27384;DHT22;14851;51.166;4.760;2023-03-11T06:24:09;-0.10;99.90
27384;DHT22;14851;51.166;4.760;2023-03-11T06:26:36;-0.10;99.90
27384;DHT22;14851;51.166;4.760;2023-03-11T06:29:03;-0.10;99.90
27384;DHT22;14851;51.166;4.760;2023-03-11T06:31:29;-0.10;99.90
27384;DHT22;14851;51.166;4.760;2023-03-11T06:34:02;-0.10;99.90
27384;DHT22;14851;51.166;4.760;2023-03-11T06:36:29;-0.10;99.90
27384;DHT22;14851;51.166;4.760;2023-03-11T06:38:55;-0.10;99.90
27384;DHT22;14851;51.166;4.760;2023-03-11T06:41:23;-0.10;99.90
27384;DHT22;14851;51.166;4.760;2023-03-11T06:43:50;-0.10;99.90
27384;DHT22;14851;51.166;4.760;2023-03-11T06:46:18;-0.10;99.90
27384;DHT22;14851;51.166;4.760;2023-03-11T06:48:49;0.10;99.90
27384;DHT22;14851;51.166;4.760;2023-03-11T06:51:19;0.30;99.90
27384;DHT22;14851;51.166;4.760;2023-03-11T06:53:52;0.40;99.90
27384;DHT22;14851;51.166;4.760;2023-03-11T06:56:22;0.40;99.90
27384;DHT22;14851;51.166;4.760;2023-03-11T06:58:59;0.20;99.90
27384;DHT22;14851;51.166;4.760;2023-03-11T07:01:29;0.10;99.90
27384;DHT22;14851;51.166;4.760;2023-03-11T07:03:56;0.00;99.90
27384;DHT22;14851;51.166;4.760;2023-03-11T07:06:25;-0.10;99.90
27384;DHT22;14851;51.166;4.760;2023-03-11T07:08:56;-0.20;99.90
27384;DHT22;14851;51.166;4.760;2023-03-11T07:11:28;-0.20;99.90
27384;DHT22;14851;51.166;4.760;2023-03-11T07:14:05;-0.30;99.90
27384;DHT22;14851;51.166;4.760;2023-03-11T07:16:35;-0.30;99.90
27384;DHT22;14851;51.166;4.760;2023-03-11T07:19:16;-0.20;99.90
27384;DHT22;14851;51.166;4.760;2023-03-11T07:21:44;0.00;99.90
27384;DHT22;14851;51.166;4.760;2023-03-11T07:24:12;0.30;99.90
27384;DHT22;14851;51.166;4.760;2023-03-11T07:26:38;0.40;99.90
27384;DHT22;14851;51.166;4.760;2023-03-11T07:29:04;0.40;99.90
27384;DHT22;14851;51.166;4.760;2023-03-11T07:31:33;0.50;99.90
27384;DHT22;14851;51.166;4.760;2023-03-11T07:34:04;0.50;99.90
27384;DHT22;14851;51.166;4.760;2023-03-11T07:36:30;0.60;99.90
27384;DHT22;14851;51.166;4.760;2023-03-11T07:39:00;0.60;99.90
27384;DHT22;14851;51.166;4.760;2023-03-11T07:41:34;0.60;99.90
27384;DHT22;14851;51.166;4.760;2023-03-11T07:44:02;0.70;99.90
27384;DHT22;14851;51.166;4.760;2023-03-11T07:46:29;0.70;99.90
27384;DHT22;14851;51.166;4.760;2023-03-11T07:48:55;0.70;99.90
27384;DHT22;14851;51.166;4.760;2023-03-11T07:51:27;0.60;99.90
27384;DHT22;14851;51.166;4.760;2023-03-11T07:53:56;0.70;99.90
27384;DHT22;14851;51.166;4.760;2023-03-11T07:56:26;0.70;99.90
27384;DHT22;14851;51.166;4.760;2023-03-11T07:58:52;0.70;99.90
27384;DHT22;14851;51.166;4.760;2023-03-11T08:01:21;0.70;99.90
27384;DHT22;14851;51.166;4.760;2023-03-11T08:03:52;0.70;99.90
27384;DHT22;14851;51.166;4.760;2023-03-11T08:06:28;0.70;99.90
27384;DHT22;14851;51.166;4.760;2023-03-11T08:08:56;0.70;99.90
27384;DHT22;14851;51.166;4.760;2023-03-11T08:11:23;0.70;99.90
27384;DHT22;14851;51.166;4.760;2023-03-11T08:13:49;0.70;99.90
27384;DHT22;14851;51.166;4.760;2023-03-11T08:16:17;0.80;99.90
27384;DHT22;14851;51.166;4.760;2023-03-11T08:18:45;0.90;99.90
27384;DHT22;14851;51.166;4.760;2023-03-11T08:21:16;1.00;99.90
27384;DHT22;14851;51.166;4.760;2023-03-11T08:23:42;1.00;99.90
27384;DHT22;14851;51.166;4.760;2023-03-11T08:26:17;1.00;99.90
27384;DHT22;14851;51.166;4.760;2023-03-11T08:28:47;1.10;99.90
27384;DHT22;14851;51.166;4.760;2023-03-11T08:31:19;1.20;99.90
27384;DHT22;14851;51.166;4.760;2023-03-11T08:33:47;1.20;99.90
27384;DHT22;14851;51.166;4.760;2023-03-11T08:36:16;1.20;99.90
27384;DHT22;14851;51.166;4.760;2023-03-11T08:38:42;1.20;99.90
27384;DHT22;14851;51.166;4.760;2023-03-11T08:41:08;1.20;99.90
27384;DHT22;14851;51.166;4.760;2023-03-11T08:43:34;1.30;99.90
27384;DHT22;14851;51.166;4.760;2023-03-11T08:46:01;1.40;99.90
27384;DHT22;14851;51.166;4.760;2023-03-11T08:48:28;1.60;99.90
27384;DHT22;14851;51.166;4.760;2023-03-11T08:50:55;1.70;99.90
27384;DHT22;14851;51.166;4.760;2023-03-11T08:53:22;1.60;99.90
27384;DHT22;14851;51.166;4.760;2023-03-11T08:55:49;1.60;99.90
27384;DHT22;14851;51.166;4.760;2023-03-11T08:58:16;1.50;99.90
27384;DHT22;14851;51.166;4.760;2023-03-11T09:00:44;1.60;99.90
27384;DHT22;14851;51.166;4.760;2023-03-11T09:03:11;1.60;99.90
27384;DHT22;14851;51.166;4.760;2023-03-11T09:05:40;1.70;99.90
27384;DHT22;14851;51.166;4.760;2023-03-11T09:08:06;1.60;99.90
27384;DHT22;14851;51.166;4.760;2023-03-11T09:10:34;1.60;99.90
27384;DHT22;14851;51.166;4.760;2023-03-11T09:13:00;1.50;99.90
27384;DHT22;14851;51.166;4.760;2023-03-11T09:15:26;1.50;99.90
27384;DHT22;14851;51.166;4.760;2023-03-11T09:17:52;1.50;99.90
27384;DHT22;14851;51.166;4.760;2023-03-11T09:20:19;1.60;99.90
27384;DHT22;14851;51.166;4.760;2023-03-11T09:22:45;1.80;99.90
27384;DHT22;14851;51.166;4.760;2023-03-11T09:25:12;1.80;99.90
27384;DHT22;14851;51.166;4.760;2023-03-11T09:27:38;1.90;99.90
27384;DHT22;14851;51.166;4.760;2023-03-11T09:30:04;1.90;99.90
27384;DHT22;14851;51.166;4.760;2023-03-11T09:32:30;2.00;99.90
27384;DHT22;14851;51.166;4.760;2023-03-11T09:34:56;2.00;99.90
27384;DHT22;14851;51.166;4.760;2023-03-11T09:37:22;2.00;99.90
27384;DHT22;14851;51.166;4.760;2023-03-11T09:39:48;2.10;99.90
27384;DHT22;14851;51.166;4.760;2023-03-11T09:45:07;2.30;99.90
27384;DHT22;14851;51.166;4.760;2023-03-11T09:50:30;2.40;99.90
27384;DHT22;14851;51.166;4.760;2023-03-11T09:56:05;2.50;99.90
27384;DHT22;14851;51.166;4.760;2023-03-11T09:58:50;2.50;99.90
27384;DHT22;14851;51.166;4.760;2023-03-11T10:01:22;2.60;99.90
27384;DHT22;14851;51.166;4.760;2023-03-11T10:03:50;2.70;99.90
27384;DHT22;14851;51.166;4.760;2023-03-11T10:06:27;2.80;99.90
27384;DHT22;14851;51.166;4.760;2023-03-11T10:14:44;2.90;99.90
27384;DHT22;14851;51.166;4.760;2023-03-11T10:28:48;3.20;99.90
27384;DHT22;14851;51.166;4.760;2023-03-11T10:37:02;3.30;99.90
27384;DHT22;14851;51.166;4.760;2023-03-11T10:39:32;3.30;99.90
27384;DHT22;14851;51.166;4.760;2023-03-11T10:42:04;3.40;99.90
27384;DHT22;14851;51.166;4.760;2023-03-11T10:44:36;3.40;99.90
27384;DHT22;14851;51.166;4.760;2023-03-11T10:47:04;3.40;99.90
27384;DHT22;14851;51.166;4.760;2023-03-11T10:49:32;3.60;99.90
27384;DHT22;14851;51.166;4.760;2023-03-11T10:52:02;3.70;99.90
27384;DHT22;14851;51.166;4.760;2023-03-11T10:54:39;3.70;99.90
27384;DHT22;14851;51.166;4.760;2023-03-11T10:57:26;3.80;99.90
27384;DHT22;14851;51.166;4.760;2023-03-11T10:59:57;3.80;99.90
27384;DHT22;14851;51.166;4.760;2023-03-11T11:02:31;3.90;99.90
27384;DHT22;14851;51.166;4.760;2023-03-11T11:05:28;3.90;99.90
27384;DHT22;14851;51.166;4.760;2023-03-11T11:08:16;4.00;99.90
27384;DHT22;14851;51.166;4.760;2023-03-11T11:10:58;4.00;99.90
27384;DHT22;14851;51.166;4.760;2023-03-11T11:13:28;4.00;99.90
27384;DHT22;14851;51.166;4.760;2023-03-11T11:16:17;4.10;99.90
27384;DHT22;14851;51.166;4.760;2023-03-11T11:18:49;4.10;99.90
27384;DHT22;14851;51.166;4.760;2023-03-11T11:26:41;4.10;99.90
27384;DHT22;14851;51.166;4.760;2023-03-11T11:29:16;4.10;99.90
27384;DHT22;14851;51.166;4.760;2023-03-11T11:31:45;4.20;99.90
27384;DHT22;14851;51.166;4.760;2023-03-11T11:34:29;4.20;99.90
27384;DHT22;14851;51.166;4.760;2023-03-11T11:36:58;4.30;99.90
27384;DHT22;14851;51.166;4.760;2023-03-11T11:39:26;4.30;99.90
27384;DHT22;14851;51.166;4.760;2023-03-11T11:41:56;4.30;99.90
27384;DHT22;14851;51.166;4.760;2023-03-11T11:44:30;4.30;99.90
27384;DHT22;14851;51.166;4.760;2023-03-11T11:47:15;4.40;99.90
27384;DHT22;14851;51.166;4.760;2023-03-11T11:49:54;4.50;99.90
27384;DHT22;14851;51.166;4.760;2023-03-11T11:52:29;4.50;99.90
27384;DHT22;14851;51.166;4.760;2023-03-11T11:57:42;4.50;99.90
27384;DHT22;14851;51.166;4.760;2023-03-11T12:00:19;4.50;99.90
27384;DHT22;14851;51.166;4.760;2023-03-11T12:02:58;4.50;99.90
27384;DHT22;14851;51.166;4.760;2023-03-11T12:05:31;4.50;99.90
27384;DHT22;14851;51.166;4.760;2023-03-11T12:16:08;4.50;99.90
27384;DHT22;14851;51.166;4.760;2023-03-11T12:21:36;4.60;99.90
27384;DHT22;14851;51.166;4.760;2023-03-11T12:26:34;4.80;99.90
27384;DHT22;14851;51.166;4.760;2023-03-11T12:31:47;4.70;99.90
27384;DHT22;14851;51.166;4.760;2023-03-11T12:34:15;4.70;99.90
27384;DHT22;14851;51.166;4.760;2023-03-11T12:36:47;4.80;99.90
27384;DHT22;14851;51.166;4.760;2023-03-11T12:39:29;5.00;99.90
27384;DHT22;14851;51.166;4.760;2023-03-11T12:42:19;5.10;99.90
27384;DHT22;14851;51.166;4.760;2023-03-11T12:44:46;5.10;99.90
27384;DHT22;14851;51.166;4.760;2023-03-11T12:49:46;5.10;99.90
27384;DHT22;14851;51.166;4.760;2023-03-11T12:54:48;5.20;99.90
27384;DHT22;14851;51.166;4.760;2023-03-11T12:57:34;5.10;99.90
27384;DHT22;14851;51.166;4.760;2023-03-11T13:10:51;5.40;99.90
27384;DHT22;14851;51.166;4.760;2023-03-11T13:18:45;5.30;99.90
27384;DHT22;14851;51.166;4.760;2023-03-11T13:29:50;5.30;99.90
27384;DHT22;14851;51.166;4.760;2023-03-11T13:40:54;5.70;99.90
27384;DHT22;14851;51.166;4.760;2023-03-11T13:43:22;5.90;99.90
27384;DHT22;14851;51.166;4.760;2023-03-11T13:46:06;5.80;99.90
27384;DHT22;14851;51.166;4.760;2023-03-11T13:48:45;5.80;99.90
27384;DHT22;14851;51.166;4.760;2023-03-11T13:53:47;5.80;99.90
27384;DHT22;14851;51.166;4.760;2023-03-11T13:56:24;5.80;99.90
27384;DHT22;14851;51.166;4.760;2023-03-11T13:58:51;5.90;99.90
27384;DHT22;14851;51.166;4.760;2023-03-11T14:01:20;5.90;99.90
27384;DHT22;14851;51.166;4.760;2023-03-11T14:03:47;5.90;99.90
27384;DHT22;14851;51.166;4.760;2023-03-11T14:06:17;6.00;99.90
27384;DHT22;14851;51.166;4.760;2023-03-11T14:08:52;6.00;99.90
27384;DHT22;14851;51.166;4.760;2023-03-11T14:11:19;6.00;99.90
27384;DHT22;14851;51.166;4.760;2023-03-11T14:13:51;6.00;99.90
27384;DHT22;14851;51.166;4.760;2023-03-11T14:19:13;6.10;99.90
27384;DHT22;14851;51.166;4.760;2023-03-11T14:21:46;6.10;99.90
27384;DHT22;14851;51.166;4.760;2023-03-11T14:24:29;6.10;99.90
27384;DHT22;14851;51.166;4.760;2023-03-11T14:26:57;6.20;99.90
27384;DHT22;14851;51.166;4.760;2023-03-11T14:29:35;6.20;99.90
27384;DHT22;14851;51.166;4.760;2023-03-11T14:32:35;6.20;99.90
27384;DHT22;14851;51.166;4.760;2023-03-11T14:35:18;6.20;99.90
27384;DHT22;14851;51.166;4.760;2023-03-11T14:37:45;6.20;99.90
27384;DHT22;14851;51.166;4.760;2023-03-11T14:40:22;6.20;99.90
27384;DHT22;14851;51.166;4.760;2023-03-11T14:42:53;6.20;99.90
27384;DHT22;14851;51.166;4.760;2023-03-11T14:45:25;6.20;99.90
27384;DHT22;14851;51.166;4.760;2023-03-11T14:48:03;6.20;99.90
27384;DHT22;14851;51.166;4.760;2023-03-11T14:50:33;6.20;99.90
27384;DHT22;14851;51.166;4.760;2023-03-11T14:53:21;6.20;99.90
27384;DHT22;14851;51.166;4.760;2023-03-11T14:56:17;6.20;99.90
27384;DHT22;14851;51.166;4.760;2023-03-11T14:58:49;6.20;99.90
27384;DHT22;14851;51.166;4.760;2023-03-11T15:01:24;6.20;99.90
27384;DHT22;14851;51.166;4.760;2023-03-11T15:03:54;6.20;99.90
27384;DHT22;14851;51.166;4.760;2023-03-11T15:06:39;6.20;99.90
27384;DHT22;14851;51.166;4.760;2023-03-11T15:09:18;6.20;99.90
27384;DHT22;14851;51.166;4.760;2023-03-11T15:14:58;6.30;99.90
27384;DHT22;14851;51.166;4.760;2023-03-11T15:17:32;6.40;99.90
27384;DHT22;14851;51.166;4.760;2023-03-11T15:20:32;6.40;99.90
27384;DHT22;14851;51.166;4.760;2023-03-11T15:23:04;6.40;99.90
27384;DHT22;14851;51.166;4.760;2023-03-11T15:26:20;6.40;99.90
27384;DHT22;14851;51.166;4.760;2023-03-11T15:28:53;6.40;99.90
27384;DHT22;14851;51.166;4.760;2023-03-11T15:33:52;6.50;99.90
27384;DHT22;14851;51.166;4.760;2023-03-11T15:41:46;6.70;99.90
27384;DHT22;14851;51.166;4.760;2023-03-11T15:44:31;6.80;99.90
27384;DHT22;14851;51.166;4.760;2023-03-11T15:47:03;6.80;99.90
27384;DHT22;14851;51.166;4.760;2023-03-11T15:49:30;6.80;99.90
27384;DHT22;14851;51.166;4.760;2023-03-11T15:52:00;6.80;99.90
27384;DHT22;14851;51.166;4.760;2023-03-11T15:54:27;6.80;99.90
27384;DHT22;14851;51.166;4.760;2023-03-11T15:56:54;6.80;99.90
27384;DHT22;14851;51.166;4.760;2023-03-11T15:59:21;6.80;99.90
27384;DHT22;14851;51.166;4.760;2023-03-11T16:01:47;6.80;99.90
27384;DHT22;14851;51.166;4.760;2023-03-11T16:04:17;6.90;99.90
27384;DHT22;14851;51.166;4.760;2023-03-11T16:06:45;6.90;99.90
27384;DHT22;14851;51.166;4.760;2023-03-11T16:09:12;6.90;99.90
27384;DHT22;14851;51.166;4.760;2023-03-11T16:11:39;6.90;99.90
27384;DHT22;14851;51.166;4.760;2023-03-11T16:14:19;6.90;99.90
27384;DHT22;14851;51.166;4.760;2023-03-11T16:16:46;6.80;99.90
27384;DHT22;14851;51.166;4.760;2023-03-11T16:19:12;6.80;99.90
27384;DHT22;14851;51.166;4.760;2023-03-11T16:21:46;6.80;99.90
27384;DHT22;14851;51.166;4.760;2023-03-11T16:24:21;6.70;99.90
27384;DHT22;14851;51.166;4.760;2023-03-11T16:26:48;6.60;99.90
27384;DHT22;14851;51.166;4.760;2023-03-11T16:29:17;6.60;99.90
27384;DHT22;14851;51.166;4.760;2023-03-11T16:31:43;6.60;99.90
27384;DHT22;14851;51.166;4.760;2023-03-11T16:34:11;6.60;99.90
27384;DHT22;14851;51.166;4.760;2023-03-11T16:36:36;6.60;99.90
27384;DHT22;14851;51.166;4.760;2023-03-11T16:39:05;6.60;99.90
27384;DHT22;14851;51.166;4.760;2023-03-11T16:41:41;6.50;99.90
27384;DHT22;14851;51.166;4.760;2023-03-11T16:44:08;6.40;99.90
27384;DHT22;14851;51.166;4.760;2023-03-11T16:46:36;6.30;99.90
27384;DHT22;14851;51.166;4.760;2023-03-11T16:49:05;6.30;99.90
27384;DHT22;14851;51.166;4.760;2023-03-11T16:51:33;6.20;99.90
27384;DHT22;14851;51.166;4.760;2023-03-11T16:53:59;6.10;99.90
27384;DHT22;14851;51.166;4.760;2023-03-11T16:56:25;6.00;99.90
27384;DHT22;14851;51.166;4.760;2023-03-11T16:58:51;6.00;99.90
27384;DHT22;14851;51.166;4.760;2023-03-11T17:01:17;6.00;99.90
27384;DHT22;14851;51.166;4.760;2023-03-11T17:03:46;5.90;99.90
27384;DHT22;14851;51.166;4.760;2023-03-11T17:06:15;5.90;99.90
27384;DHT22;14851;51.166;4.760;2023-03-11T17:08:41;5.90;99.90
27384;DHT22;14851;51.166;4.760;2023-03-11T17:11:18;5.80;99.90
27384;DHT22;14851;51.166;4.760;2023-03-11T17:13:47;5.80;99.90
27384;DHT22;14851;51.166;4.760;2023-03-11T17:16:13;5.70;99.90
27384;DHT22;14851;51.166;4.760;2023-03-11T17:18:39;5.70;99.90
27384;DHT22;14851;51.166;4.760;2023-03-11T17:21:09;5.70;99.90
27384;DHT22;14851;51.166;4.760;2023-03-11T17:23:37;5.60;99.90
27384;DHT22;14851;51.166;4.760;2023-03-11T17:26:08;5.60;99.90
27384;DHT22;14851;51.166;4.760;2023-03-11T17:28:37;5.50;99.90
27384;DHT22;14851;51.166;4.760;2023-03-11T17:31:14;5.50;99.90
27384;DHT22;14851;51.166;4.760;2023-03-11T17:33:45;5.50;99.90
27384;DHT22;14851;51.166;4.760;2023-03-11T17:36:54;5.50;99.90
27384;DHT22;14851;51.166;4.760;2023-03-11T17:39:22;5.30;99.90
27384;DHT22;14851;51.166;4.760;2023-03-11T17:41:48;5.30;99.90
27384;DHT22;14851;51.166;4.760;2023-03-11T17:44:16;5.30;99.90
27384;DHT22;14851;51.166;4.760;2023-03-11T17:46:42;5.30;99.90
27384;DHT22;14851;51.166;4.760;2023-03-11T17:49:19;5.20;99.90
27384;DHT22;14851;51.166;4.760;2023-03-11T17:51:45;5.10;99.90
27384;DHT22;14851;51.166;4.760;2023-03-11T17:54:11;5.00;99.90
27384;DHT22;14851;51.166;4.760;2023-03-11T17:56:40;4.90;99.90
27384;DHT22;14851;51.166;4.760;2023-03-11T17:59:06;4.80;99.90
27384;DHT22;14851;51.166;4.760;2023-03-11T18:01:31;4.80;99.90
27384;DHT22;14851;51.166;4.760;2023-03-11T18:03:59;4.70;99.90